createdAt,value
2018-04-30T00:00:38.388Z,23.10
2018-04-30T00:03:06.011Z,18.07
2018-04-30T00:05:33.642Z,20.07
2018-04-30T00:08:01.251Z,29.40
2018-04-30T00:10:28.887Z,19.00
2018-04-30T00:12:56.566Z,17.80
2018-04-30T00:15:24.196Z,19.27
2018-04-30T00:17:51.898Z,19.80
2018-04-30T00:20:19.506Z,23.57
2018-04-30T00:22:47.147Z,20.53
2018-04-30T00:25:14.754Z,21.07
2018-04-30T00:27:42.382Z,18.23
2018-04-30T00:30:10.002Z,18.70
2018-04-30T00:32:37.642Z,15.77
2018-04-30T00:35:05.258Z,32.30
2018-04-30T00:37:32.894Z,21.87
2018-04-30T00:40:00.507Z,21.53
2018-04-30T00:42:28.134Z,18.83
2018-04-30T00:44:55.751Z,32.33
2018-04-30T00:47:23.386Z,27.63
2018-04-30T00:49:51.094Z,21.03
2018-04-30T00:52:18.732Z,34.47
2018-04-30T00:54:59.533Z,19.50
2018-04-30T00:57:27.173Z,22.87
2018-04-30T00:59:54.787Z,17.53
2018-04-30T01:02:22.523Z,22.17
2018-04-30T01:04:50.183Z,28.13
2018-04-30T01:07:17.824Z,28.67
2018-04-30T01:09:45.442Z,20.30
2018-04-30T01:12:21.262Z,25.23
2018-04-30T01:14:48.878Z,31.80
2018-04-30T01:17:16.514Z,23.73
2018-04-30T01:19:44.126Z,25.37
2018-04-30T01:22:11.779Z,23.47
2018-04-30T01:24:39.476Z,20.00
2018-04-30T01:27:07.134Z,19.13
2018-04-30T01:29:34.755Z,20.47
2018-04-30T01:32:02.463Z,21.27
2018-04-30T01:34:30.080Z,23.07
2018-04-30T01:36:57.714Z,18.37
2018-04-30T01:39:25.342Z,16.90
2018-04-30T01:41:53.111Z,20.97
2018-04-30T01:44:20.726Z,25.97
2018-04-30T01:46:48.338Z,18.83
2018-04-30T01:49:15.981Z,18.90
2018-04-30T01:51:43.598Z,16.70
2018-04-30T01:54:11.235Z,20.43
2018-04-30T01:56:38.887Z,28.63
2018-04-30T01:59:06.542Z,17.73
2018-04-30T02:01:34.159Z,17.63
2018-04-30T02:04:01.808Z,21.17
2018-04-30T02:06:29.426Z,34.27
2018-04-30T02:08:57.104Z,25.00
2018-04-30T02:11:24.722Z,19.27
2018-04-30T02:13:52.430Z,22.90
2018-04-30T02:16:20.046Z,19.27
2018-04-30T02:18:47.742Z,27.57
2018-04-30T02:21:15.363Z,21.30
2018-04-30T02:23:43.008Z,21.30
2018-04-30T02:26:10.727Z,24.90
2018-04-30T02:28:38.907Z,22.17
2018-04-30T02:31:06.523Z,19.83
2018-04-30T02:33:34.199Z,36.43
2018-04-30T02:36:01.895Z,22.93
2018-04-30T02:38:29.550Z,21.40
2018-04-30T02:40:57.222Z,22.90
2018-04-30T02:43:24.863Z,16.50
2018-04-30T02:45:52.483Z,16.97
2018-04-30T02:48:20.212Z,24.10
2018-04-30T02:50:47.823Z,14.57
2018-04-30T02:53:15.467Z,24.23
2018-04-30T02:55:43.078Z,33.33
2018-04-30T02:58:10.738Z,26.43
2018-04-30T03:00:38.364Z,19.90
2018-04-30T03:03:05.974Z,22.10
2018-04-30T03:05:33.613Z,15.43
2018-04-30T03:08:01.224Z,30.77
2018-04-30T03:10:28.863Z,19.03
2018-04-30T03:12:56.484Z,17.90
2018-04-30T03:15:24.114Z,25.63
2018-04-30T03:17:51.727Z,22.63
2018-04-30T03:20:19.363Z,16.77
2018-04-30T03:22:47.080Z,21.13
2018-04-30T03:25:14.739Z,22.37
2018-04-30T03:27:42.354Z,17.87
2018-04-30T03:30:09.991Z,25.27
2018-04-30T03:32:37.609Z,19.93
2018-04-30T03:35:05.291Z,20.20
2018-04-30T03:37:32.902Z,21.57
2018-04-30T03:40:00.542Z,20.43
2018-04-30T03:42:28.160Z,20.67
2018-04-30T03:44:55.834Z,19.90
2018-04-30T03:47:23.455Z,19.97
2018-04-30T03:49:51.149Z,23.73
2018-04-30T03:52:18.766Z,23.93
2018-04-30T03:54:46.408Z,18.53
2018-04-30T03:57:14.138Z,20.03
2018-04-30T03:59:41.801Z,25.80
2018-04-30T04:02:21.174Z,23.73
2018-04-30T04:05:00.463Z,18.50
2018-04-30T04:07:28.143Z,23.50
2018-04-30T04:09:55.778Z,17.43
2018-04-30T04:12:23.387Z,21.70
2018-04-30T04:14:51.135Z,28.73
2018-04-30T04:17:18.746Z,30.63
2018-04-30T04:19:46.457Z,17.60
2018-04-30T04:22:14.122Z,17.80
2018-04-30T04:24:41.782Z,20.80
2018-04-30T04:27:09.452Z,16.17
2018-04-30T04:29:37.067Z,21.73
2018-04-30T04:32:05.590Z,17.37
2018-04-30T04:34:33.265Z,21.23
2018-04-30T04:37:00.942Z,19.03
2018-04-30T04:39:28.574Z,21.13
2018-04-30T04:41:56.239Z,18.90
2018-04-30T04:44:23.902Z,18.93
2018-04-30T04:46:51.539Z,25.23
2018-04-30T04:49:19.157Z,18.70
2018-04-30T04:51:46.891Z,19.80
2018-04-30T04:54:14.502Z,21.00
2018-04-30T04:56:42.138Z,18.73
2018-04-30T04:59:09.763Z,26.63
2018-04-30T05:01:37.429Z,19.03
2018-04-30T05:04:05.040Z,20.37
2018-04-30T05:06:32.675Z,15.30
2018-04-30T05:09:00.321Z,29.00
2018-04-30T05:11:27.981Z,14.33
2018-04-30T05:13:55.743Z,24.77
2018-04-30T05:16:23.383Z,17.80
2018-04-30T05:18:51.171Z,30.23
2018-04-30T05:21:18.840Z,18.27
2018-04-30T05:23:46.455Z,26.53
2018-04-30T05:26:14.111Z,19.87
2018-04-30T05:28:41.732Z,25.63
2018-04-30T05:31:09.390Z,16.87
2018-04-30T05:33:37.043Z,13.90
2018-04-30T05:36:04.706Z,22.00
2018-04-30T05:38:32.370Z,17.50
2018-04-30T05:40:59.984Z,32.37
2018-04-30T05:43:27.610Z,17.80
2018-04-30T05:45:55.218Z,19.50
2018-04-30T05:48:22.932Z,38.77
2018-04-30T05:50:50.587Z,25.50
2018-04-30T05:53:18.223Z,20.73
2018-04-30T05:55:45.844Z,15.07
2018-04-30T05:58:13.571Z,18.83
2018-04-30T06:00:41.231Z,20.40
2018-04-30T06:03:08.862Z,20.40
2018-04-30T06:05:36.474Z,15.53
2018-04-30T06:08:04.106Z,15.53
2018-04-30T06:10:31.715Z,20.80
2018-04-30T06:12:59.406Z,25.27
2018-04-30T06:15:27.009Z,18.00
2018-04-30T06:17:54.634Z,18.37
2018-04-30T06:20:23.075Z,18.30
2018-04-30T06:22:50.809Z,23.93
2018-04-30T06:25:18.423Z,12.33
2018-04-30T06:27:46.058Z,17.70
2018-04-30T06:30:13.662Z,16.80
2018-04-30T06:32:41.363Z,22.67
2018-04-30T06:35:08.999Z,25.93
2018-04-30T06:37:36.638Z,25.20
2018-04-30T06:40:04.456Z,17.00
2018-04-30T06:42:32.121Z,19.73
2018-04-30T06:44:59.759Z,19.33
2018-04-30T06:47:27.444Z,25.47
2018-04-30T06:49:55.104Z,26.60
2018-04-30T06:52:22.734Z,13.30
2018-04-30T06:54:50.430Z,18.20
2018-04-30T06:57:18.090Z,25.60
2018-04-30T06:59:45.764Z,23.80
2018-04-30T07:02:13.370Z,22.40
2018-04-30T07:04:41.072Z,21.90
2018-04-30T07:07:08.738Z,22.20
2018-04-30T07:09:36.461Z,30.27
2018-04-30T07:12:04.163Z,17.33
2018-04-30T07:14:31.836Z,18.93
2018-04-30T07:16:59.446Z,26.73
2018-04-30T07:19:27.150Z,24.20
2018-04-30T07:21:54.824Z,21.07
2018-04-30T07:24:22.467Z,17.50
2018-04-30T07:26:50.090Z,18.50
2018-04-30T07:29:17.715Z,17.63
2018-04-30T07:31:45.327Z,19.70
2018-04-30T07:34:13.031Z,15.23
2018-04-30T07:36:40.690Z,30.50
2018-04-30T07:39:08.367Z,29.80
2018-04-30T07:41:35.963Z,23.77
2018-04-30T07:44:03.678Z,19.23
2018-04-30T07:46:31.286Z,29.27
2018-04-30T07:48:58.914Z,22.47
2018-04-30T07:51:26.518Z,27.00
2018-04-30T07:53:54.226Z,21.20
2018-04-30T07:56:21.830Z,28.03
2018-04-30T07:58:49.462Z,38.03
2018-04-30T08:01:17.067Z,21.53
2018-04-30T08:03:44.693Z,27.70
2018-04-30T08:06:12.302Z,24.43
2018-04-30T08:08:39.947Z,25.50
2018-04-30T08:11:07.664Z,38.23
2018-04-30T08:13:35.296Z,22.60
2018-04-30T08:16:02.986Z,28.27
2018-04-30T08:18:30.618Z,27.40
2018-04-30T08:20:58.239Z,23.70
2018-04-30T08:23:25.870Z,29.20
2018-04-30T08:25:53.502Z,24.50
2018-04-30T08:28:21.203Z,22.80
2018-04-30T08:30:48.858Z,22.40
2018-04-30T08:33:16.469Z,31.13
2018-04-30T08:35:44.109Z,25.13
2018-04-30T08:38:11.753Z,25.00
2018-04-30T08:40:39.387Z,25.43
2018-04-30T08:43:07.002Z,39.93
2018-04-30T08:45:34.639Z,22.03
2018-04-30T08:48:02.246Z,27.60
2018-04-30T08:50:29.873Z,25.33
2018-04-30T08:52:57.484Z,29.47
2018-04-30T08:55:25.114Z,25.60
2018-04-30T08:57:52.750Z,23.80
2018-04-30T09:00:20.455Z,26.83
2018-04-30T09:02:48.032Z,26.20
2018-04-30T09:05:15.722Z,18.10
2018-04-30T09:07:43.330Z,22.60
2018-04-30T09:10:10.958Z,33.97
2018-04-30T09:12:38.615Z,22.13
2018-04-30T09:15:06.271Z,30.73
2018-04-30T09:17:33.932Z,24.53
2018-04-30T09:20:01.603Z,19.50
2018-04-30T09:22:29.228Z,28.73
2018-04-30T09:24:56.864Z,27.37
2018-04-30T09:27:24.582Z,29.97
2018-04-30T09:29:52.228Z,29.10
2018-04-30T09:32:19.842Z,25.90
2018-04-30T09:34:47.574Z,19.27
2018-04-30T09:37:15.242Z,26.90
2018-04-30T09:39:42.884Z,43.33
2018-04-30T09:42:10.558Z,25.07
2018-04-30T09:44:38.195Z,59.67
2018-04-30T09:47:05.891Z,108.60
2018-04-30T09:49:33.536Z,31.13
2018-04-30T09:52:01.147Z,32.23
2018-04-30T09:54:28.774Z,30.70
2018-04-30T09:56:56.436Z,26.60
2018-04-30T09:59:24.070Z,24.37
2018-04-30T10:01:51.683Z,25.07
2018-04-30T10:04:19.299Z,21.10
2018-04-30T10:06:46.958Z,23.87
2018-04-30T10:09:14.574Z,22.00
2018-04-30T10:11:42.310Z,23.70
2018-04-30T10:14:09.927Z,26.50
2018-04-30T10:16:37.563Z,20.87
2018-04-30T10:19:05.199Z,25.00
2018-04-30T10:21:32.835Z,27.83
2018-04-30T10:24:00.526Z,23.43
2018-04-30T10:26:28.168Z,18.60
2018-04-30T10:28:55.783Z,17.10
2018-04-30T10:31:23.506Z,21.37
2018-04-30T10:33:51.121Z,26.37
2018-04-30T10:36:18.787Z,24.30
2018-04-30T10:38:46.494Z,23.07
2018-04-30T10:41:14.135Z,25.97
2018-04-30T10:43:41.746Z,23.93
2018-04-30T10:46:09.495Z,19.83
2018-04-30T10:48:37.038Z,20.93
2018-04-30T10:51:04.675Z,23.90
2018-04-30T10:53:32.283Z,26.03
2018-04-30T10:55:59.926Z,22.53
2018-04-30T10:58:27.591Z,23.50
2018-04-30T11:00:55.255Z,25.30
2018-04-30T11:03:22.866Z,33.73
2018-04-30T11:05:50.503Z,15.37
2018-04-30T11:08:18.115Z,18.83
2018-04-30T11:10:45.801Z,21.70
2018-04-30T11:13:13.406Z,20.80
2018-04-30T11:15:41.038Z,27.97
2018-04-30T11:18:08.643Z,20.10
2018-04-30T11:20:36.288Z,25.73
2018-04-30T11:23:03.907Z,16.90
2018-04-30T11:25:31.543Z,25.63
2018-04-30T11:27:59.164Z,38.03
2018-04-30T11:30:26.790Z,22.60
2018-04-30T11:32:54.452Z,20.90
2018-04-30T11:35:22.098Z,19.97
2018-04-30T11:37:49.782Z,12.63
2018-04-30T11:40:17.550Z,21.90
2018-04-30T11:42:45.208Z,26.23
2018-04-30T11:45:12.841Z,20.33
2018-04-30T11:47:40.539Z,20.83
2018-04-30T11:50:08.171Z,21.83
2018-04-30T11:52:35.854Z,37.50
2018-04-30T11:55:03.466Z,20.20
2018-04-30T11:57:31.115Z,28.73
2018-04-30T11:59:58.744Z,47.57
2018-04-30T12:02:26.443Z,19.20
2018-04-30T12:04:54.115Z,27.57
2018-04-30T12:07:21.703Z,31.20
2018-04-30T12:09:49.362Z,34.67
2018-04-30T12:12:17.027Z,28.00
2018-04-30T12:14:44.659Z,28.57
2018-04-30T12:17:12.303Z,33.13
2018-04-30T12:19:39.931Z,28.77
2018-04-30T12:22:07.625Z,41.27
2018-04-30T12:24:35.214Z,28.70
2018-04-30T12:27:02.856Z,27.00
2018-04-30T12:29:30.471Z,27.70
2018-04-30T12:31:58.110Z,31.13
2018-04-30T12:34:25.746Z,25.67
2018-04-30T12:36:53.478Z,40.13
2018-04-30T12:39:21.124Z,37.33
2018-04-30T12:41:48.813Z,43.57
2018-04-30T12:44:16.434Z,48.10
2018-04-30T12:46:44.139Z,46.87
2018-04-30T12:49:11.764Z,43.60
2018-04-30T12:51:39.406Z,46.20
2018-04-30T12:54:07.074Z,42.23
2018-04-30T12:56:34.735Z,41.37
2018-04-30T12:59:02.364Z,50.67
2018-04-30T13:01:30.023Z,37.20
2018-04-30T13:03:57.656Z,45.50
2018-04-30T13:06:25.298Z,39.13
2018-04-30T13:08:52.987Z,38.23
2018-04-30T13:11:20.631Z,32.23
2018-04-30T13:13:48.318Z,46.53
2018-04-30T13:16:16.088Z,17.50
2018-04-30T13:18:43.748Z,13.30
2018-04-30T13:21:11.407Z,9.97
2018-04-30T13:23:39.062Z,11.27
2018-04-30T13:26:06.691Z,8.70
2018-04-30T13:28:34.404Z,8.40
2018-04-30T13:31:02.050Z,10.50
2018-04-30T13:33:29.709Z,14.00
2018-04-30T13:36:01.171Z,8.67
2018-04-30T13:38:28.801Z,13.53
2018-04-30T13:40:56.432Z,17.40
2018-04-30T13:43:24.059Z,5.13
2018-04-30T13:45:51.668Z,4.10
2018-04-30T13:48:19.382Z,10.53
2018-04-30T13:50:47.048Z,2.87
2018-04-30T13:53:14.683Z,2.70
2018-04-30T13:55:42.290Z,3.17
2018-04-30T13:58:10.032Z,3.60
2018-04-30T14:00:37.635Z,2.80
2018-04-30T14:03:05.986Z,4.40
2018-04-30T14:05:33.603Z,3.63
2018-04-30T14:08:01.292Z,3.30
2018-04-30T14:10:28.953Z,2.70
2018-04-30T14:12:56.621Z,5.43
2018-04-30T14:15:24.297Z,4.90
2018-04-30T14:17:51.930Z,3.13
2018-04-30T14:20:19.530Z,2.83
2018-04-30T14:22:47.271Z,2.70
2018-04-30T14:25:14.885Z,15.43
2018-04-30T14:27:42.519Z,2.80
2018-04-30T14:30:10.132Z,3.80
2018-04-30T14:32:37.755Z,6.83
2018-04-30T14:35:05.357Z,2.93
2018-04-30T14:37:32.987Z,4.13
2018-04-30T14:40:00.698Z,5.80
2018-04-30T14:42:28.362Z,4.40
2018-04-30T14:44:55.971Z,2.47
2018-04-30T14:47:23.691Z,8.23
2018-04-30T14:49:51.346Z,2.63
2018-04-30T14:52:19.011Z,3.87
2018-04-30T14:54:46.887Z,4.53
2018-04-30T14:57:14.548Z,3.00
2018-04-30T14:59:42.203Z,3.20
2018-04-30T15:02:09.833Z,2.83
2018-04-30T15:04:37.495Z,5.70
2018-04-30T15:07:05.118Z,3.10
2018-04-30T15:09:32.723Z,4.17
2018-04-30T15:12:00.414Z,2.97
2018-04-30T15:14:28.038Z,2.80
2018-04-30T15:16:55.646Z,4.60
2018-04-30T15:19:23.295Z,6.60
2018-04-30T15:21:50.958Z,2.87
2018-04-30T15:24:18.628Z,4.13
2018-04-30T15:26:46.281Z,4.27
2018-04-30T15:29:13.942Z,4.53
2018-04-30T15:31:41.556Z,3.40
2018-04-30T15:34:09.185Z,3.10
2018-04-30T15:36:36.795Z,3.10
2018-04-30T15:39:04.426Z,7.00
2018-04-30T15:41:32.044Z,3.37
2018-04-30T15:43:59.682Z,4.50
2018-04-30T15:46:27.282Z,3.83
2018-04-30T15:48:54.910Z,3.20
2018-04-30T15:51:22.510Z,6.03
2018-04-30T15:53:50.158Z,3.70
2018-04-30T15:56:17.761Z,3.43
2018-04-30T15:58:45.485Z,3.27
2018-04-30T16:01:13.159Z,5.43
2018-04-30T16:03:40.810Z,12.93
2018-04-30T16:06:08.410Z,3.37
2018-04-30T16:08:36.052Z,6.57
2018-04-30T16:11:03.703Z,3.53
2018-04-30T16:13:31.335Z,3.27
2018-04-30T16:15:58.942Z,19.17
2018-04-30T16:18:26.682Z,3.30
2018-04-30T16:20:54.292Z,4.10
2018-04-30T16:23:21.928Z,7.13
2018-04-30T16:25:49.534Z,6.53
2018-04-30T16:28:17.163Z,3.10
2018-04-30T16:30:44.766Z,4.40
2018-04-30T16:33:12.392Z,3.20
2018-04-30T16:35:39.995Z,3.33
2018-04-30T16:38:07.858Z,2.23
2018-04-30T16:40:35.466Z,8.10
2018-04-30T16:43:03.090Z,2.60
2018-04-30T16:45:30.766Z,4.37
2018-04-30T16:47:58.403Z,11.13
2018-04-30T16:50:26.006Z,2.10
2018-04-30T16:52:53.660Z,7.23
2018-04-30T16:55:21.316Z,5.50
2018-04-30T16:57:48.988Z,2.20
2018-04-30T17:00:16.651Z,1.93
2018-04-30T17:02:44.259Z,2.93
2018-04-30T17:05:11.971Z,2.13
2018-04-30T17:07:39.574Z,3.03
2018-04-30T17:10:07.208Z,1.27
2018-04-30T17:12:34.815Z,11.07
2018-04-30T17:15:02.520Z,53.90
2018-04-30T17:17:30.183Z,17.43
2018-04-30T17:19:57.791Z,4.50
2018-04-30T17:22:25.429Z,2.23
2018-04-30T17:24:53.056Z,4.30
2018-04-30T17:27:20.722Z,1.13
2018-04-30T17:29:48.360Z,18.63
2018-04-30T17:32:15.966Z,1.70
2018-04-30T17:34:43.715Z,1.90
2018-04-30T17:37:11.431Z,4.57
2018-04-30T17:39:39.070Z,2.30
2018-04-30T17:42:06.704Z,3.43
2018-04-30T17:44:34.343Z,5.23
2018-04-30T17:47:02.089Z,1.93
2018-04-30T17:49:29.674Z,2.67
2018-04-30T17:51:57.350Z,1.40
2018-04-30T17:54:24.975Z,1.90
2018-04-30T17:56:52.585Z,1.37
2018-04-30T17:59:20.234Z,4.97
2018-04-30T18:01:47.839Z,4.67
2018-04-30T18:04:15.553Z,3.37
2018-04-30T18:06:43.292Z,1.70
2018-04-30T18:09:10.896Z,1.83
2018-04-30T18:11:38.498Z,1.93
2018-04-30T18:14:06.129Z,3.27
2018-04-30T18:16:33.770Z,3.23
2018-04-30T18:19:01.411Z,9.90
2018-04-30T18:21:29.028Z,1.97
2018-04-30T18:23:56.655Z,7.33
2018-04-30T18:26:24.323Z,1.60
2018-04-30T18:28:51.950Z,3.73
2018-04-30T18:31:19.559Z,1.90
2018-04-30T18:33:47.188Z,1.37
2018-04-30T18:36:14.867Z,10.80
2018-04-30T18:38:42.691Z,2.23
2018-04-30T18:41:10.274Z,2.60
2018-04-30T18:43:37.884Z,2.13
2018-04-30T18:46:05.510Z,2.23
2018-04-30T18:48:33.111Z,1.83
2018-04-30T18:51:00.835Z,5.03
2018-04-30T18:53:28.438Z,1.90
2018-04-30T18:55:56.163Z,1.67
2018-04-30T18:58:23.770Z,1.33
2018-04-30T19:00:51.399Z,2.67
2018-04-30T19:03:19.042Z,5.77
2018-04-30T19:05:46.768Z,3.23
2018-04-30T19:08:14.471Z,3.50
2018-04-30T19:10:42.108Z,2.13
2018-04-30T19:13:09.727Z,1.90
2018-04-30T19:15:37.363Z,3.33
2018-04-30T19:18:04.970Z,3.20
2018-04-30T19:20:32.606Z,3.40
2018-04-30T19:23:00.986Z,4.70
2018-04-30T19:25:28.723Z,8.70
2018-04-30T19:27:56.327Z,4.67
2018-04-30T19:30:24.056Z,4.17
2018-04-30T19:32:51.658Z,4.03
2018-04-30T19:35:19.382Z,3.70
2018-04-30T19:37:47.048Z,2.50
2018-04-30T19:40:14.710Z,3.10
2018-04-30T19:42:42.325Z,3.57
2018-04-30T19:45:10.027Z,3.50
2018-04-30T19:47:37.696Z,8.10
2018-04-30T19:50:05.346Z,4.37
2018-04-30T19:52:32.950Z,5.83
2018-04-30T19:55:00.679Z,3.30
2018-04-30T19:57:28.291Z,3.03
2018-04-30T19:59:55.926Z,3.77
2018-04-30T20:02:23.529Z,4.23
2018-04-30T20:04:51.206Z,2.73
2018-04-30T20:07:18.882Z,7.27
2018-04-30T20:09:46.490Z,2.63
2018-04-30T20:12:14.217Z,8.63
2018-04-30T20:14:41.817Z,1.90
2018-04-30T20:17:09.462Z,3.30
2018-04-30T20:19:37.072Z,2.33
2018-04-30T20:22:04.703Z,2.37
2018-04-30T20:24:32.422Z,1.73
2018-04-30T20:27:00.115Z,4.87
2018-04-30T20:29:27.719Z,2.57
2018-04-30T20:31:55.342Z,4.27
2018-04-30T20:34:22.967Z,2.37
2018-04-30T20:36:50.636Z,2.70
2018-04-30T20:39:18.247Z,11.40
2018-04-30T20:41:45.873Z,2.77
2018-04-30T20:44:13.484Z,6.10
2018-04-30T20:46:41.193Z,3.40
2018-04-30T20:49:08.802Z,2.60
2018-04-30T20:51:36.426Z,3.77
2018-04-30T20:54:04.031Z,3.53
2018-04-30T20:56:31.658Z,3.73
2018-04-30T20:58:59.266Z,3.97
2018-04-30T21:01:26.947Z,4.87
2018-04-30T21:03:54.560Z,4.63
2018-04-30T21:06:22.271Z,5.93
2018-04-30T21:09:01.727Z,4.70
2018-04-30T21:11:29.362Z,2.93
2018-04-30T21:13:57.034Z,3.80
2018-04-30T21:16:24.798Z,3.73
2018-04-30T21:18:52.439Z,7.47
2018-04-30T21:21:20.051Z,3.20
2018-04-30T21:23:47.688Z,3.70
2018-04-30T21:26:15.871Z,2.50
2018-04-30T21:28:43.498Z,2.70
2018-04-30T21:31:11.186Z,2.50
2018-04-30T21:33:38.814Z,9.03
2018-04-30T21:36:06.419Z,5.80
2018-04-30T21:38:34.070Z,3.90
2018-04-30T21:41:01.748Z,2.43
2018-04-30T21:43:29.397Z,3.27
2018-04-30T21:45:57.008Z,4.53
2018-04-30T21:48:24.729Z,2.63
2018-04-30T21:50:52.352Z,2.67
2018-04-30T21:53:19.983Z,4.90
2018-04-30T21:55:47.596Z,11.47
2018-04-30T21:58:15.266Z,5.03
2018-04-30T22:00:42.871Z,6.03
2018-04-30T22:03:10.520Z,3.17
2018-04-30T22:05:38.144Z,3.13
2018-04-30T22:08:05.783Z,2.43
2018-04-30T22:10:33.394Z,2.00
2018-04-30T22:13:01.018Z,5.50
2018-04-30T22:15:28.628Z,2.03
2018-04-30T22:17:56.372Z,3.27
2018-04-30T22:20:24.026Z,4.17
2018-04-30T22:22:51.695Z,2.00
2018-04-30T22:25:19.359Z,2.20
2018-04-30T22:27:46.986Z,3.43
2018-04-30T22:30:14.674Z,2.60
2018-04-30T22:32:42.274Z,1.93
2018-04-30T22:35:09.997Z,2.00
2018-04-30T22:37:37.598Z,4.13
2018-04-30T22:40:05.223Z,2.37
2018-04-30T22:42:32.826Z,4.93
2018-04-30T22:45:00.459Z,2.43
2018-04-30T22:47:28.108Z,9.20
2018-04-30T22:49:55.771Z,2.10
2018-04-30T22:52:23.375Z,2.60
2018-04-30T22:54:51.008Z,3.53
2018-04-30T22:57:18.616Z,2.67
2018-04-30T22:59:46.242Z,2.60
2018-04-30T23:02:13.842Z,2.03
2018-04-30T23:04:41.470Z,5.10
2018-04-30T23:07:09.112Z,2.60
2018-04-30T23:09:36.771Z,9.47
2018-04-30T23:12:04.375Z,6.20
2018-04-30T23:14:32.002Z,2.73
2018-04-30T23:16:59.655Z,3.27
2018-04-30T23:19:27.283Z,2.90
2018-04-30T23:21:54.886Z,3.00
2018-04-30T23:24:22.510Z,3.03
2018-04-30T23:26:50.122Z,3.27
2018-04-30T23:29:17.844Z,2.70
2018-04-30T23:31:45.522Z,4.50
2018-04-30T23:34:13.186Z,6.03
2018-04-30T23:36:40.799Z,2.97
2018-04-30T23:39:08.425Z,3.37
2018-04-30T23:41:36.030Z,2.87
2018-04-30T23:44:03.674Z,3.00
2018-04-30T23:46:31.298Z,2.67
2018-04-30T23:48:58.953Z,3.00
2018-04-30T23:51:26.583Z,3.53
2018-04-30T23:53:54.186Z,3.73
2018-04-30T23:56:21.847Z,2.67
2018-04-30T23:58:49.450Z,3.73
